sensor_id;sensor_type;location;lat;lon;timestamp;P1;durP1;ratioP1;P2;durP2;ratioP2
84168;SDS011;74295;50.146;8.794;2024-03-02T00:01:57;14.43;;;9.87;;
84168;SDS011;74295;50.146;8.794;2024-03-02T00:12:00;14.80;;;8.73;;
84168;SDS011;74295;50.146;8.794;2024-03-02T00:22:04;14.10;;;9.93;;
84168;SDS011;74295;50.146;8.794;2024-03-02T00:32:07;16.07;;;10.20;;
84168;SDS011;74295;50.146;8.794;2024-03-02T00:42:17;17.17;;;11.07;;
84168;SDS011;74295;50.146;8.794;2024-03-02T00:52:19;16.57;;;12.00;;
84168;SDS011;74295;50.146;8.794;2024-03-02T01:02:23;20.23;;;13.77;;
84168;SDS011;74295;50.146;8.794;2024-03-02T01:12:26;17.40;;;12.23;;
84168;SDS011;74295;50.146;8.794;2024-03-02T01:22:30;17.43;;;12.17;;
84168;SDS011;74295;50.146;8.794;2024-03-02T01:32:33;18.47;;;12.43;;
84168;SDS011;74295;50.146;8.794;2024-03-02T01:42:37;16.90;;;11.47;;
84168;SDS011;74295;50.146;8.794;2024-03-02T01:52:40;17.20;;;12.10;;
84168;SDS011;74295;50.146;8.794;2024-03-02T02:02:45;16.10;;;10.93;;
84168;SDS011;74295;50.146;8.794;2024-03-02T02:12:47;18.40;;;12.50;;
84168;SDS011;74295;50.146;8.794;2024-03-02T02:22:55;24.87;;;16.07;;
84168;SDS011;74295;50.146;8.794;2024-03-02T02:32:58;21.93;;;15.50;;
84168;SDS011;74295;50.146;8.794;2024-03-02T02:43:03;18.57;;;13.83;;
84168;SDS011;74295;50.146;8.794;2024-03-02T02:53:06;22.87;;;15.17;;
84168;SDS011;74295;50.146;8.794;2024-03-02T03:03:12;21.37;;;14.43;;
84168;SDS011;74295;50.146;8.794;2024-03-02T03:13:14;21.60;;;13.67;;
84168;SDS011;74295;50.146;8.794;2024-03-02T03:23:19;19.33;;;14.33;;
84168;SDS011;74295;50.146;8.794;2024-03-02T03:33:22;24.37;;;14.40;;
84168;SDS011;74295;50.146;8.794;2024-03-02T03:43:26;21.10;;;14.40;;
84168;SDS011;74295;50.146;8.794;2024-03-02T03:53:29;22.37;;;14.83;;
84168;SDS011;74295;50.146;8.794;2024-03-02T04:03:32;22.80;;;15.47;;
84168;SDS011;74295;50.146;8.794;2024-03-02T04:13:35;32.03;;;19.40;;
84168;SDS011;74295;50.146;8.794;2024-03-02T04:23:39;24.47;;;16.60;;
84168;SDS011;74295;50.146;8.794;2024-03-02T04:33:42;25.23;;;17.27;;
84168;SDS011;74295;50.146;8.794;2024-03-02T04:43:46;26.60;;;18.30;;
84168;SDS011;74295;50.146;8.794;2024-03-02T04:53:48;28.43;;;18.23;;
84168;SDS011;74295;50.146;8.794;2024-03-02T05:03:52;23.90;;;15.63;;
84168;SDS011;74295;50.146;8.794;2024-03-02T05:13:55;28.97;;;17.97;;
84168;SDS011;74295;50.146;8.794;2024-03-02T05:23:59;27.60;;;16.60;;
84168;SDS011;74295;50.146;8.794;2024-03-02T05:34:02;35.47;;;21.67;;
84168;SDS011;74295;50.146;8.794;2024-03-02T05:44:08;39.53;;;22.23;;
84168;SDS011;74295;50.146;8.794;2024-03-02T05:54:11;38.03;;;21.97;;
84168;SDS011;74295;50.146;8.794;2024-03-02T06:04:15;29.97;;;18.37;;
84168;SDS011;74295;50.146;8.794;2024-03-02T06:14:17;36.97;;;22.00;;
84168;SDS011;74295;50.146;8.794;2024-03-02T06:24:21;35.43;;;20.87;;
84168;SDS011;74295;50.146;8.794;2024-03-02T06:34:24;27.20;;;17.27;;
84168;SDS011;74295;50.146;8.794;2024-03-02T06:44:28;29.87;;;18.10;;
84168;SDS011;74295;50.146;8.794;2024-03-02T06:54:31;30.77;;;19.60;;
84168;SDS011;74295;50.146;8.794;2024-03-02T07:04:35;26.83;;;18.50;;
84168;SDS011;74295;50.146;8.794;2024-03-02T07:14:37;31.63;;;20.60;;
84168;SDS011;74295;50.146;8.794;2024-03-02T07:24:59;27.43;;;19.27;;
84168;SDS011;74295;50.146;8.794;2024-03-02T07:35:02;29.10;;;18.43;;
84168;SDS011;74295;50.146;8.794;2024-03-02T07:45:07;24.33;;;16.93;;
84168;SDS011;74295;50.146;8.794;2024-03-02T07:55:10;26.13;;;15.47;;
84168;SDS011;74295;50.146;8.794;2024-03-02T08:05:14;44.57;;;19.73;;
84168;SDS011;74295;50.146;8.794;2024-03-02T08:15:17;27.60;;;18.50;;
84168;SDS011;74295;50.146;8.794;2024-03-02T08:25:24;26.63;;;16.70;;
84168;SDS011;74295;50.146;8.794;2024-03-02T08:35:27;33.97;;;24.07;;
84168;SDS011;74295;50.146;8.794;2024-03-02T08:45:31;22.90;;;16.53;;
84168;SDS011;74295;50.146;8.794;2024-03-02T08:55:35;18.50;;;13.40;;
84168;SDS011;74295;50.146;8.794;2024-03-02T09:05:39;16.67;;;13.00;;
84168;SDS011;74295;50.146;8.794;2024-03-02T09:15:42;17.20;;;12.60;;
84168;SDS011;74295;50.146;8.794;2024-03-02T09:25:47;14.87;;;11.33;;
84168;SDS011;74295;50.146;8.794;2024-03-02T09:35:50;13.00;;;10.97;;
84168;SDS011;74295;50.146;8.794;2024-03-02T09:45:56;13.67;;;10.93;;
84168;SDS011;74295;50.146;8.794;2024-03-02T09:55:59;14.57;;;11.27;;
84168;SDS011;74295;50.146;8.794;2024-03-02T10:06:23;17.20;;;11.20;;
84168;SDS011;74295;50.146;8.794;2024-03-02T10:16:26;11.83;;;9.93;;
84168;SDS011;74295;50.146;8.794;2024-03-02T10:26:30;12.63;;;10.13;;
84168;SDS011;74295;50.146;8.794;2024-03-02T10:36:33;12.17;;;10.03;;
84168;SDS011;74295;50.146;8.794;2024-03-02T10:46:38;13.43;;;10.33;;
84168;SDS011;74295;50.146;8.794;2024-03-02T10:56:41;13.27;;;10.07;;
84168;SDS011;74295;50.146;8.794;2024-03-02T11:06:48;14.07;;;9.80;;
84168;SDS011;74295;50.146;8.794;2024-03-02T11:16:52;10.97;;;8.60;;
84168;SDS011;74295;50.146;8.794;2024-03-02T11:26:57;9.80;;;7.17;;
84168;SDS011;74295;50.146;8.794;2024-03-02T11:37:00;8.43;;;6.90;;
84168;SDS011;74295;50.146;8.794;2024-03-02T11:47:06;5.23;;;4.73;;
84168;SDS011;74295;50.146;8.794;2024-03-02T11:57:10;7.40;;;4.83;;
84168;SDS011;74295;50.146;8.794;2024-03-02T12:07:14;7.87;;;5.60;;
84168;SDS011;74295;50.146;8.794;2024-03-02T12:17:22;6.07;;;4.70;;
84168;SDS011;74295;50.146;8.794;2024-03-02T12:27:26;6.20;;;4.43;;
84168;SDS011;74295;50.146;8.794;2024-03-02T12:37:29;5.07;;;3.03;;
84168;SDS011;74295;50.146;8.794;2024-03-02T12:47:33;3.93;;;2.83;;
84168;SDS011;74295;50.146;8.794;2024-03-02T12:57:36;4.27;;;3.80;;
84168;SDS011;74295;50.146;8.794;2024-03-02T13:07:43;5.27;;;3.87;;
84168;SDS011;74295;50.146;8.794;2024-03-02T13:17:46;2.80;;;2.37;;
84168;SDS011;74295;50.146;8.794;2024-03-02T13:27:50;2.67;;;2.30;;
84168;SDS011;74295;50.146;8.794;2024-03-02T13:37:53;2.60;;;1.93;;
84168;SDS011;74295;50.146;8.794;2024-03-02T13:47:57;2.10;;;1.60;;
84168;SDS011;74295;50.146;8.794;2024-03-02T13:58:00;2.20;;;1.80;;
84168;SDS011;74295;50.146;8.794;2024-03-02T14:08:05;3.27;;;1.67;;
84168;SDS011;74295;50.146;8.794;2024-03-02T14:18:08;1.50;;;1.30;;
84168;SDS011;74295;50.146;8.794;2024-03-02T14:28:13;2.70;;;1.23;;
84168;SDS011;74295;50.146;8.794;2024-03-02T14:38:37;2.00;;;1.03;;
84168;SDS011;74295;50.146;8.794;2024-03-02T14:48:43;2.83;;;1.70;;
84168;SDS011;74295;50.146;8.794;2024-03-02T14:58:46;1.10;;;1.00;;
84168;SDS011;74295;50.146;8.794;2024-03-02T15:08:50;1.30;;;1.10;;
84168;SDS011;74295;50.146;8.794;2024-03-02T15:18:55;2.10;;;0.93;;
84168;SDS011;74295;50.146;8.794;2024-03-02T15:28:59;1.90;;;0.90;;
84168;SDS011;74295;50.146;8.794;2024-03-02T15:39:02;1.40;;;1.00;;
84168;SDS011;74295;50.146;8.794;2024-03-02T15:49:11;3.47;;;1.83;;
84168;SDS011;74295;50.146;8.794;2024-03-02T15:59:14;0.97;;;0.90;;
84168;SDS011;74295;50.146;8.794;2024-03-02T16:09:18;2.37;;;1.23;;
84168;SDS011;74295;50.146;8.794;2024-03-02T16:19:20;2.07;;;1.20;;
84168;SDS011;74295;50.146;8.794;2024-03-02T16:29:34;1.93;;;1.50;;
84168;SDS011;74295;50.146;8.794;2024-03-02T16:39:37;3.97;;;2.00;;
84168;SDS011;74295;50.146;8.794;2024-03-02T16:49:43;4.70;;;2.33;;
84168;SDS011;74295;50.146;8.794;2024-03-02T16:59:46;3.60;;;2.60;;
84168;SDS011;74295;50.146;8.794;2024-03-02T17:09:50;6.40;;;4.23;;
84168;SDS011;74295;50.146;8.794;2024-03-02T17:19:54;6.43;;;3.27;;
84168;SDS011;74295;50.146;8.794;2024-03-02T17:29:58;4.67;;;2.83;;
84168;SDS011;74295;50.146;8.794;2024-03-02T17:40:01;8.67;;;6.13;;
84168;SDS011;74295;50.146;8.794;2024-03-02T17:50:07;4.80;;;3.67;;
84168;SDS011;74295;50.146;8.794;2024-03-02T18:00:11;6.50;;;4.43;;
84168;SDS011;74295;50.146;8.794;2024-03-02T18:10:16;7.60;;;4.30;;
84168;SDS011;74295;50.146;8.794;2024-03-02T18:20:19;6.07;;;4.00;;
84168;SDS011;74295;50.146;8.794;2024-03-02T18:30:23;4.73;;;3.73;;
84168;SDS011;74295;50.146;8.794;2024-03-02T18:40:26;5.67;;;3.80;;
84168;SDS011;74295;50.146;8.794;2024-03-02T18:50:30;12.80;;;8.90;;
84168;SDS011;74295;50.146;8.794;2024-03-02T19:00:34;6.13;;;4.30;;
84168;SDS011;74295;50.146;8.794;2024-03-02T19:10:38;6.43;;;3.87;;
84168;SDS011;74295;50.146;8.794;2024-03-02T19:20:41;5.57;;;3.50;;
84168;SDS011;74295;50.146;8.794;2024-03-02T19:30:46;7.00;;;4.53;;
84168;SDS011;74295;50.146;8.794;2024-03-02T19:40:50;8.60;;;5.33;;
84168;SDS011;74295;50.146;8.794;2024-03-02T19:50:56;8.63;;;5.87;;
84168;SDS011;74295;50.146;8.794;2024-03-02T20:00:59;11.40;;;6.83;;
84168;SDS011;74295;50.146;8.794;2024-03-02T20:11:03;11.00;;;7.63;;
84168;SDS011;74295;50.146;8.794;2024-03-02T20:21:06;14.73;;;10.57;;
84168;SDS011;74295;50.146;8.794;2024-03-02T20:31:10;11.40;;;8.23;;
84168;SDS011;74295;50.146;8.794;2024-03-02T20:41:15;10.87;;;8.23;;
84168;SDS011;74295;50.146;8.794;2024-03-02T20:51:20;12.10;;;8.73;;
84168;SDS011;74295;50.146;8.794;2024-03-02T21:01:22;13.73;;;9.30;;
84168;SDS011;74295;50.146;8.794;2024-03-02T21:11:26;10.30;;;7.60;;
84168;SDS011;74295;50.146;8.794;2024-03-02T21:21:29;10.00;;;6.47;;
84168;SDS011;74295;50.146;8.794;2024-03-02T21:31:34;11.83;;;7.10;;
84168;SDS011;74295;50.146;8.794;2024-03-02T21:41:37;14.23;;;8.87;;
84168;SDS011;74295;50.146;8.794;2024-03-02T21:51:41;18.30;;;10.10;;
84168;SDS011;74295;50.146;8.794;2024-03-02T22:01:43;15.63;;;10.20;;
84168;SDS011;74295;50.146;8.794;2024-03-02T22:11:48;13.63;;;9.50;;
84168;SDS011;74295;50.146;8.794;2024-03-02T22:21:51;14.83;;;9.90;;
84168;SDS011;74295;50.146;8.794;2024-03-02T22:31:55;17.80;;;11.70;;
84168;SDS011;74295;50.146;8.794;2024-03-02T22:41:57;20.63;;;13.00;;
84168;SDS011;74295;50.146;8.794;2024-03-02T22:52:01;17.90;;;11.80;;
84168;SDS011;74295;50.146;8.794;2024-03-02T23:02:05;20.13;;;12.00;;
84168;SDS011;74295;50.146;8.794;2024-03-02T23:12:10;16.73;;;11.80;;
84168;SDS011;74295;50.146;8.794;2024-03-02T23:22:13;15.87;;;10.07;;
84168;SDS011;74295;50.146;8.794;2024-03-02T23:32:17;14.30;;;9.43;;
84168;SDS011;74295;50.146;8.794;2024-03-02T23:42:20;17.17;;;10.73;;
84168;SDS011;74295;50.146;8.794;2024-03-02T23:52:24;24.87;;;13.13;;
